イカルイト の空港の天気 - METARとTAF

イカルイト空港 ( CYFB / YFB ) - カナダ ヌナブト準州イカルイト
飛行場実況気象(Metar)
観測時間05/26 19:00 EDT (05/26 23:00 UTC)
風向・風速北北西 7m/s
視程10km以上
天気現象
全天を覆う雲 雲底高度 880m
気温-1℃
湿度74%
気圧1012.8hPa
METARCYFB 262300Z 33013KT 30SM OVC029 M01/M05 A2990 RMK SC8 SLP128
過去の天気等 Google飛行場航空写真 Wunderground天気予報

過去48時間のMETAR

飛行場予報(TAF)
発表時間: 5/26 13:38 EDT (5/26 17:38 UTC)
予報対象時間: 26日14時 EDT ~ 27日14時 EDT
風向・風速北北西 8m/s
視程10km以上
少しの雲 雲底高度 610m
全天の8割程度の雲 雲底高度 1520m
26日17時 EDT から
風向・風速北北西 8m/s
視程10km以上
全天の4割程度の雲 雲底高度 610m
26日17時 EDT ~ 27日5時 EDT に一時的に
視程10km以上
天気現象弱い雪
全天の8割程度の雲 雲底高度 610m
27日0時 EDT ~ 27日2時 EDT に徐々に
風向・風速北西 4m/s
27日5時 EDT から
風向・風速北北西 6m/s
視程10km以上
全天の4割程度の雲 雲底高度 460m
TAF CYFB 261738Z 2618/2718 33015KT P6SM FEW020 BKN050
FM262100 33015KT P6SM SCT020
TEMPO 2621/2709 P6SM -SN BKN020
BECMG 2704/2706 31008KT
FM270900 33012KT P6SM SCT015 RMK NXT FCST BY 270000Z